createdAt,value
2022-09-20T00:01:33.521Z,11.00
2022-09-20T00:04:05.826Z,10.90
2022-09-20T00:06:34.302Z,10.90
2022-09-20T00:09:03.249Z,10.80
2022-09-20T00:11:33.599Z,10.70
2022-09-20T00:14:03.027Z,10.70
2022-09-20T00:16:35.161Z,10.60
2022-09-20T00:19:04.387Z,10.60
2022-09-20T00:21:34.328Z,10.50
2022-09-20T00:24:02.578Z,10.50
2022-09-20T00:26:30.262Z,10.40
2022-09-20T00:28:58.443Z,10.30
2022-09-20T00:31:33.393Z,10.30
2022-09-20T00:34:19.481Z,10.30
2022-09-20T00:36:47.300Z,10.40
2022-09-20T00:39:15.965Z,10.40
2022-09-20T00:41:44.231Z,10.30
2022-09-20T00:44:55.816Z,10.30
2022-09-20T00:47:46.487Z,10.20
2022-09-20T00:50:46.234Z,10.30
2022-09-20T00:53:42.308Z,10.20
2022-09-20T00:56:21.914Z,10.20
2022-09-20T00:59:11.839Z,10.20
2022-09-20T01:01:43.447Z,10.20
2022-09-20T01:04:14.643Z,10.10
2022-09-20T01:06:44.874Z,10.00
2022-09-20T01:09:12.432Z,10.00
2022-09-20T01:11:41.160Z,9.90
2022-09-20T01:14:09.287Z,9.90
2022-09-20T01:16:37.931Z,9.80
2022-09-20T01:19:17.719Z,9.80
2022-09-20T01:21:46.426Z,9.70
2022-09-20T01:24:35.469Z,9.70
2022-09-20T01:27:35.207Z,9.70
2022-09-20T01:30:07.138Z,9.60
2022-09-20T01:33:03.049Z,9.70
2022-09-20T01:35:33.761Z,9.70
2022-09-20T01:38:38.743Z,9.70
2022-09-20T01:41:11.277Z,9.70
2022-09-20T01:43:53.352Z,9.70
2022-09-20T01:46:32.564Z,9.70
2022-09-20T01:49:36.584Z,9.60
2022-09-20T01:52:28.125Z,9.60
2022-09-20T01:55:14.027Z,9.50
2022-09-20T01:57:50.528Z,9.50
2022-09-20T02:00:20.218Z,9.50
2022-09-20T02:03:26.029Z,9.50
2022-09-20T02:06:13.862Z,9.50
2022-09-20T02:09:14.960Z,9.40
2022-09-20T02:12:20.118Z,9.40
2022-09-20T02:14:58.073Z,9.40
2022-09-20T02:17:48.361Z,9.40
2022-09-20T02:20:57.187Z,9.40
2022-09-20T02:23:58.398Z,9.40
2022-09-20T02:26:51.305Z,9.40
2022-09-20T02:29:27.683Z,9.40
2022-09-20T02:32:46.073Z,9.40
2022-09-20T02:35:45.771Z,9.30
2022-09-20T02:38:31.352Z,9.30
2022-09-20T02:41:19.983Z,9.30
2022-09-20T02:44:29.105Z,9.30
2022-09-20T02:47:17.904Z,9.20
2022-09-20T02:49:56.356Z,9.20
2022-09-20T02:52:28.434Z,9.10
2022-09-20T02:55:06.273Z,9.10
2022-09-20T02:57:53.786Z,9.20
2022-09-20T03:00:32.897Z,9.20
2022-09-20T03:03:22.150Z,9.20
2022-09-20T03:06:09.165Z,9.30
2022-09-20T03:08:56.542Z,9.40
2022-09-20T03:11:49.666Z,9.40
2022-09-20T03:14:27.749Z,9.40
2022-09-20T03:17:18.877Z,9.50
2022-09-20T03:19:56.982Z,9.50
2022-09-20T03:23:01.986Z,9.60
2022-09-20T03:25:53.111Z,9.60
2022-09-20T03:28:35.933Z,9.60
2022-09-20T03:31:09.354Z,9.60
2022-09-20T03:33:49.112Z,9.60
2022-09-20T03:36:35.003Z,9.60
2022-09-20T03:39:26.441Z,9.60
2022-09-20T03:42:16.742Z,9.60
2022-09-20T03:44:55.955Z,9.60
2022-09-20T03:47:45.014Z,9.60
2022-09-20T03:50:12.506Z,9.60
2022-09-20T03:52:57.707Z,9.60
2022-09-20T03:55:43.276Z,9.60
2022-09-20T03:58:36.778Z,9.70
2022-09-20T04:01:41.476Z,9.70
2022-09-20T04:04:27.513Z,9.80
2022-09-20T04:07:13.641Z,9.80
2022-09-20T04:09:47.773Z,9.80
2022-09-20T04:12:27.306Z,9.90
2022-09-20T04:15:03.758Z,9.90
2022-09-20T04:17:49.796Z,9.90
2022-09-20T04:20:24.153Z,10.00
2022-09-20T04:22:55.427Z,10.00
2022-09-20T04:25:43.748Z,10.00
2022-09-20T04:28:27.277Z,10.10
2022-09-20T04:31:00.247Z,10.10
2022-09-20T04:33:34.157Z,10.10
2022-09-20T04:36:31.726Z,10.10
2022-09-20T04:39:15.124Z,10.20
2022-09-20T04:42:04.195Z,10.20
2022-09-20T04:44:50.018Z,10.20
2022-09-20T04:47:37.678Z,10.30
2022-09-20T04:50:32.428Z,10.30
2022-09-20T04:53:17.406Z,10.30
2022-09-20T04:55:54.052Z,10.40
2022-09-20T04:58:36.376Z,10.50
2022-09-20T05:01:19.709Z,10.40
2022-09-20T05:04:05.691Z,10.50
2022-09-20T05:06:35.880Z,10.60
2022-09-20T05:09:17.916Z,10.70
2022-09-20T05:12:19.102Z,10.90
2022-09-20T05:15:23.428Z,11.00
2022-09-20T05:18:10.985Z,11.20
2022-09-20T05:20:56.941Z,11.30
2022-09-20T05:23:34.859Z,11.40
2022-09-20T05:26:25.502Z,11.70
2022-09-20T05:29:05.231Z,12.00
2022-09-20T05:31:51.089Z,12.00
2022-09-20T05:34:42.626Z,11.90
2022-09-20T05:37:32.871Z,11.70
2022-09-20T05:40:22.256Z,11.70
2022-09-20T05:43:02.326Z,11.70
2022-09-20T05:46:17.428Z,11.60
2022-09-20T05:48:59.444Z,11.70
2022-09-20T05:51:48.284Z,11.70
2022-09-20T05:54:29.826Z,11.60
2022-09-20T05:56:57.234Z,11.60
2022-09-20T05:59:24.805Z,11.70
2022-09-20T06:02:00.792Z,11.80
2022-09-20T06:04:50.662Z,11.70
2022-09-20T06:07:24.907Z,11.70
2022-09-20T06:10:03.795Z,11.70
2022-09-20T06:13:13.288Z,11.70
2022-09-20T06:16:06.497Z,11.70
2022-09-20T06:19:01.963Z,11.70
2022-09-20T06:21:52.873Z,11.70
2022-09-20T06:24:35.898Z,11.70
2022-09-20T06:27:09.015Z,11.70
2022-09-20T06:29:42.091Z,11.70
2022-09-20T06:32:09.689Z,11.80
2022-09-20T06:34:37.337Z,11.90
2022-09-20T06:37:47.151Z,11.80
2022-09-20T06:41:05.258Z,11.80
2022-09-20T06:43:32.820Z,11.80
2022-09-20T06:46:00.154Z,11.90
2022-09-20T06:48:30.019Z,11.90
2022-09-20T06:50:57.396Z,12.00
2022-09-20T06:53:32.654Z,12.10
2022-09-20T06:56:01.278Z,12.10
2022-09-20T06:58:28.505Z,12.10
2022-09-20T07:00:56.061Z,12.10
2022-09-20T07:03:23.383Z,12.10
2022-09-20T07:05:50.683Z,12.10
2022-09-20T07:08:18.031Z,12.10
2022-09-20T07:10:45.550Z,12.20
2022-09-20T07:13:15.781Z,12.20
2022-09-20T07:15:43.137Z,12.20
2022-09-20T07:18:10.488Z,12.40
2022-09-20T07:20:38.160Z,12.50
2022-09-20T07:23:05.580Z,12.70
2022-09-20T07:25:33.011Z,12.60
2022-09-20T07:28:00.234Z,12.50
2022-09-20T07:30:27.634Z,12.50
2022-09-20T07:32:54.910Z,12.40
2022-09-20T07:35:22.546Z,12.40
2022-09-20T07:37:56.374Z,12.40
2022-09-20T07:40:24.049Z,12.50
2022-09-20T07:42:56.008Z,12.50
2022-09-20T07:45:24.196Z,12.50
2022-09-20T07:47:52.323Z,12.60
2022-09-20T07:50:19.801Z,12.60
2022-09-20T07:52:47.143Z,12.80
2022-09-20T07:55:14.468Z,13.00
2022-09-20T07:57:41.767Z,13.10
2022-09-20T08:00:10.471Z,13.40
2022-09-20T08:02:40.972Z,13.80
2022-09-20T08:05:08.802Z,14.10
2022-09-20T08:07:36.347Z,14.40
2022-09-20T08:10:05.071Z,14.50
2022-09-20T08:15:20.951Z,15.10
2022-09-20T08:17:48.580Z,16.30
2022-09-20T08:20:16.040Z,16.90
2022-09-20T08:22:43.605Z,17.20
2022-09-20T08:25:11.159Z,17.60
2022-09-20T08:27:38.613Z,18.20
2022-09-20T08:30:07.088Z,18.60
2022-09-20T08:32:34.396Z,19.30
2022-09-20T08:35:01.849Z,20.20
2022-09-20T08:37:29.170Z,20.20
2022-09-20T08:39:57.977Z,20.10
2022-09-20T08:42:39.063Z,20.20
2022-09-20T08:45:33.831Z,19.40
2022-09-20T08:48:05.847Z,18.70
2022-09-20T08:50:34.777Z,18.20
2022-09-20T08:53:05.905Z,17.80
2022-09-20T08:55:37.701Z,17.60
2022-09-20T08:58:08.732Z,17.50
2022-09-20T09:00:37.976Z,17.20
2022-09-20T09:03:17.371Z,16.90
2022-09-20T09:05:49.196Z,16.60
2022-09-20T09:08:24.331Z,16.20
2022-09-20T09:11:02.494Z,16.10
2022-09-20T09:13:33.036Z,15.90
2022-09-20T09:16:10.118Z,15.70
2022-09-20T09:18:41.244Z,15.40
2022-09-20T09:21:10.637Z,15.20
2022-09-20T09:23:45.559Z,15.00
2022-09-20T09:26:19.234Z,14.90
2022-09-20T09:28:46.987Z,14.80
2022-09-20T09:31:29.098Z,14.60
2022-09-20T09:33:56.533Z,14.60
2022-09-20T09:36:26.316Z,14.60
2022-09-20T09:39:30.919Z,14.50
2022-09-20T09:42:01.334Z,14.80
2022-09-20T09:44:33.418Z,15.30
2022-09-20T09:47:01.510Z,15.70
2022-09-20T09:49:36.502Z,15.80
2022-09-20T09:52:24.886Z,15.50
2022-09-20T09:55:02.667Z,15.60
2022-09-20T09:57:42.998Z,15.60
2022-09-20T10:00:21.956Z,15.30
2022-09-20T10:03:22.432Z,14.90
2022-09-20T10:06:18.841Z,14.60
2022-09-20T10:09:09.377Z,14.40
2022-09-20T10:12:05.282Z,14.20
2022-09-20T10:14:41.974Z,14.10
2022-09-20T10:17:23.821Z,14.00
2022-09-20T10:20:15.567Z,14.00
2022-09-20T10:26:35.770Z,13.80
2022-09-20T10:29:54.953Z,13.80
2022-09-20T10:32:33.036Z,14.00
2022-09-20T10:35:25.306Z,14.20
2022-09-20T10:37:55.566Z,14.70
2022-09-20T10:40:57.890Z,15.30
2022-09-20T10:43:55.380Z,15.40
2022-09-20T10:46:38.350Z,15.20
2022-09-20T10:49:29.246Z,14.80
2022-09-20T10:52:01.041Z,14.60
2022-09-20T10:55:15.292Z,14.50
2022-09-20T10:57:46.593Z,14.40
2022-09-20T11:00:32.596Z,14.40
2022-09-20T11:03:12.260Z,14.40
2022-09-20T11:06:00.443Z,14.50
2022-09-20T11:08:34.162Z,14.50
2022-09-20T11:11:19.895Z,14.90
2022-09-20T11:14:02.962Z,15.50
2022-09-20T11:16:44.818Z,15.90
2022-09-20T11:19:34.113Z,16.40
2022-09-20T11:22:19.047Z,16.50
2022-09-20T11:24:58.099Z,16.50
2022-09-20T11:27:37.938Z,16.30
2022-09-20T11:30:19.173Z,16.80
2022-09-20T11:33:18.865Z,17.20
2022-09-20T11:36:05.804Z,18.40
2022-09-20T11:38:38.806Z,19.50
2022-09-20T11:41:11.983Z,19.70
2022-09-20T11:43:45.514Z,20.10
2022-09-20T11:46:14.144Z,19.20
2022-09-20T11:48:54.323Z,18.50
2022-09-20T11:52:09.480Z,17.30
2022-09-20T11:54:45.404Z,17.00
2022-09-20T11:57:17.110Z,17.60
2022-09-20T11:59:53.459Z,18.60
2022-09-20T12:02:24.263Z,19.10
2022-09-20T12:04:53.586Z,19.30
2022-09-20T12:07:32.801Z,19.90
2022-09-20T12:10:20.549Z,19.90
2022-09-20T12:12:55.144Z,20.20
2022-09-20T12:15:39.554Z,20.30
2022-09-20T12:18:15.888Z,20.40
2022-09-20T12:20:43.082Z,20.60
2022-09-20T12:23:42.706Z,21.00
2022-09-20T12:26:37.474Z,21.20
2022-09-20T12:29:32.790Z,22.00
2022-09-20T12:32:31.874Z,21.50
2022-09-20T12:34:59.321Z,20.90
2022-09-20T12:37:27.138Z,21.20
2022-09-20T12:39:56.017Z,20.20
2022-09-20T12:42:32.203Z,19.80
2022-09-20T12:45:16.011Z,20.20
2022-09-20T12:47:56.101Z,20.50
2022-09-20T12:50:42.506Z,20.60
2022-09-20T12:53:16.876Z,20.40
2022-09-20T12:56:02.251Z,20.40
2022-09-20T12:58:39.965Z,19.80
2022-09-20T13:01:10.671Z,19.80
2022-09-20T13:03:44.180Z,20.00
2022-09-20T13:06:15.083Z,20.10
2022-09-20T13:08:51.567Z,20.30
2022-09-20T13:11:36.646Z,20.20
2022-09-20T13:14:12.938Z,20.10
2022-09-20T13:17:01.931Z,20.30
2022-09-20T13:19:46.804Z,19.80
2022-09-20T13:22:23.462Z,19.60
2022-09-20T13:24:55.346Z,19.50
2022-09-20T13:27:24.702Z,19.20
2022-09-20T13:29:53.507Z,18.90
2022-09-20T13:32:28.842Z,18.30
2022-09-20T13:35:19.020Z,17.70
2022-09-20T13:37:49.544Z,17.50
2022-09-20T13:40:21.622Z,17.40
2022-09-20T13:42:52.390Z,17.40
2022-09-20T13:45:22.245Z,17.30
2022-09-20T13:47:58.226Z,17.40
2022-09-20T13:50:33.126Z,17.40
2022-09-20T13:53:27.913Z,17.50
2022-09-20T13:56:01.745Z,17.20
2022-09-20T13:58:37.406Z,16.70
2022-09-20T14:01:09.480Z,16.20
2022-09-20T14:03:37.428Z,16.30
2022-09-20T14:06:13.786Z,16.20
2022-09-20T14:08:47.082Z,15.80
2022-09-20T14:11:21.303Z,15.40
2022-09-20T14:13:51.976Z,15.40
2022-09-20T14:16:22.637Z,15.60
2022-09-20T14:18:50.690Z,16.10
2022-09-20T14:21:23.812Z,16.50
2022-09-20T14:23:58.410Z,16.50
2022-09-20T14:26:40.041Z,16.30
2022-09-20T14:29:32.651Z,16.00
2022-09-20T14:32:07.363Z,15.70
2022-09-20T14:34:40.236Z,15.70
2022-09-20T14:37:14.374Z,15.50
2022-09-20T14:39:51.166Z,15.50
2022-09-20T14:42:23.290Z,15.30
2022-09-20T14:44:52.476Z,15.30
2022-09-20T14:47:38.608Z,15.00
2022-09-20T14:50:33.943Z,14.90
2022-09-20T14:53:09.004Z,15.00
2022-09-20T14:55:37.975Z,14.90
2022-09-20T14:58:13.398Z,14.80
2022-09-20T15:01:05.307Z,14.60
2022-09-20T15:03:34.453Z,14.60
2022-09-20T15:06:01.815Z,14.60
2022-09-20T15:08:29.221Z,14.60
2022-09-20T15:10:56.496Z,14.50
2022-09-20T15:13:23.890Z,14.40
2022-09-20T15:15:53.462Z,14.40
2022-09-20T15:18:30.328Z,14.40
2022-09-20T15:20:57.712Z,14.40
2022-09-20T15:23:25.357Z,14.20
2022-09-20T15:25:54.509Z,14.20
2022-09-20T15:28:22.188Z,14.20
2022-09-20T15:30:51.566Z,14.10
2022-09-20T15:33:20.750Z,14.10
2022-09-20T15:35:49.034Z,14.00
2022-09-20T15:38:19.473Z,13.90
2022-09-20T15:40:49.658Z,13.90
2022-09-20T15:43:21.759Z,13.70
2022-09-20T15:45:51.720Z,13.60
2022-09-20T15:48:21.556Z,13.60
2022-09-20T15:51:09.179Z,13.60
2022-09-20T15:53:45.268Z,13.60
2022-09-20T15:56:19.491Z,13.60
2022-09-20T15:58:51.758Z,13.60
2022-09-20T16:01:20.092Z,13.50
2022-09-20T16:03:47.640Z,13.40
2022-09-20T16:06:15.109Z,13.30
2022-09-20T16:08:43.646Z,13.30
2022-09-20T16:11:13.862Z,13.20
2022-09-20T16:13:42.026Z,13.10
2022-09-20T16:16:13.249Z,13.10
2022-09-20T16:18:59.246Z,13.00
2022-09-20T16:21:26.593Z,12.90
2022-09-20T16:23:56.271Z,12.80
2022-09-20T16:26:25.483Z,12.80
2022-09-20T16:28:53.528Z,12.70
2022-09-20T16:31:43.066Z,12.60
2022-09-20T16:34:14.632Z,12.60
2022-09-20T16:36:42.488Z,12.50
2022-09-20T16:39:11.134Z,12.40
2022-09-20T16:41:39.687Z,12.20
2022-09-20T16:44:07.440Z,12.20
2022-09-20T16:46:38.411Z,12.10
2022-09-20T16:49:09.599Z,12.00
2022-09-20T16:51:39.117Z,11.90
2022-09-20T16:54:15.066Z,11.90
2022-09-20T16:56:46.996Z,11.90
2022-09-20T16:59:16.427Z,11.80
2022-09-20T17:01:45.075Z,11.70
2022-09-20T17:04:14.541Z,11.70
2022-09-20T17:06:43.580Z,11.60
2022-09-20T17:09:11.360Z,11.60
2022-09-20T17:11:42.017Z,11.50
2022-09-20T17:14:09.750Z,11.50
2022-09-20T17:16:39.021Z,11.40
2022-09-20T17:19:11.637Z,11.40
2022-09-20T17:21:43.533Z,11.40
2022-09-20T17:24:10.991Z,11.40
2022-09-20T17:26:40.480Z,11.30
2022-09-20T17:29:10.475Z,11.30
2022-09-20T17:31:39.583Z,11.20
2022-09-20T17:34:10.056Z,11.20
2022-09-20T17:36:43.445Z,11.10
2022-09-20T17:39:13.122Z,11.10
2022-09-20T17:41:42.429Z,11.10
2022-09-20T17:44:10.272Z,11.10
2022-09-20T17:46:39.504Z,11.00
2022-09-20T17:49:09.648Z,11.00
2022-09-20T17:51:48.753Z,11.00
2022-09-20T17:54:17.325Z,11.00
2022-09-20T17:56:48.927Z,11.00
2022-09-20T17:59:17.574Z,11.00
2022-09-20T18:01:46.907Z,10.90
2022-09-20T18:04:14.424Z,10.80
2022-09-20T18:06:47.015Z,10.80
2022-09-20T18:09:16.849Z,10.80
2022-09-20T18:11:48.834Z,10.70
2022-09-20T18:14:23.360Z,10.70
2022-09-20T18:17:01.158Z,10.70
2022-09-20T18:19:35.214Z,10.60
2022-09-20T18:22:03.384Z,10.60
2022-09-20T18:24:31.449Z,10.70
2022-09-20T18:27:00.914Z,10.60
2022-09-20T18:29:29.430Z,10.70
2022-09-20T18:31:58.005Z,10.70
2022-09-20T18:34:31.240Z,10.70
2022-09-20T18:37:01.396Z,10.70
2022-09-20T18:39:33.679Z,10.70
2022-09-20T18:42:02.743Z,10.70
2022-09-20T18:44:34.407Z,10.70
2022-09-20T18:47:03.499Z,10.60
2022-09-20T18:49:31.533Z,10.70
2022-09-20T18:51:58.935Z,10.70
2022-09-20T18:54:27.178Z,10.70
2022-09-20T18:56:54.982Z,10.70
2022-09-20T18:59:27.096Z,10.60
2022-09-20T19:02:19.973Z,10.50
2022-09-20T19:04:59.279Z,10.50
2022-09-20T19:07:52.493Z,10.50
2022-09-20T19:10:38.003Z,10.30
2022-09-20T19:13:17.635Z,10.20
2022-09-20T19:15:50.947Z,10.10
2022-09-20T19:18:24.318Z,10.10
2022-09-20T19:21:28.343Z,10.00
2022-09-20T19:24:04.777Z,10.00
2022-09-20T19:26:38.185Z,9.80
2022-09-20T19:29:19.881Z,9.70
2022-09-20T19:31:53.683Z,9.70
2022-09-20T19:34:24.126Z,9.60
2022-09-20T19:37:18.847Z,9.50
2022-09-20T19:39:55.488Z,9.50
2022-09-20T19:42:40.993Z,9.40
2022-09-20T19:45:24.583Z,9.40
2022-09-20T19:48:33.926Z,9.40
2022-09-20T19:51:05.462Z,9.40
2022-09-20T19:53:33.342Z,9.50
2022-09-20T19:56:18.347Z,9.50
2022-09-20T19:58:46.752Z,9.50
2022-09-20T20:01:14.487Z,9.50
2022-09-20T20:03:44.081Z,9.50
2022-09-20T20:06:42.893Z,9.50
2022-09-20T20:09:34.004Z,9.50
2022-09-20T20:12:16.753Z,9.60
2022-09-20T20:14:46.912Z,9.80
2022-09-20T20:17:56.239Z,9.90
2022-09-20T20:20:37.730Z,9.90
2022-09-20T20:23:19.359Z,9.90
2022-09-20T20:26:16.183Z,9.90
2022-09-20T20:28:44.147Z,9.90
2022-09-20T20:31:12.554Z,10.00
2022-09-20T20:33:41.101Z,10.00
2022-09-20T20:36:12.186Z,10.10
2022-09-20T20:38:41.216Z,10.10
2022-09-20T20:41:14.552Z,10.20
2022-09-20T20:43:42.857Z,10.20
2022-09-20T20:46:14.364Z,10.20
2022-09-20T20:48:42.207Z,10.30
2022-09-20T20:51:15.184Z,10.30
2022-09-20T20:53:48.825Z,10.40
2022-09-20T20:56:18.822Z,10.50
2022-09-20T20:58:47.828Z,10.50
2022-09-20T21:01:18.271Z,10.50
2022-09-20T21:03:53.626Z,10.60
2022-09-20T21:06:24.525Z,10.60
2022-09-20T21:08:52.296Z,10.60
2022-09-20T21:11:25.202Z,10.60
2022-09-20T21:13:54.203Z,10.60
2022-09-20T21:16:24.152Z,10.60
2022-09-20T21:18:51.893Z,10.60
2022-09-20T21:21:22.057Z,10.50
2022-09-20T21:23:54.767Z,10.40
2022-09-20T21:26:23.812Z,10.40
2022-09-20T21:28:53.694Z,10.30
2022-09-20T21:31:22.775Z,10.20
2022-09-20T21:33:50.413Z,10.20
2022-09-20T21:36:23.376Z,10.10
2022-09-20T21:38:51.437Z,10.10
2022-09-20T21:41:23.929Z,10.10
2022-09-20T21:43:56.232Z,10.10
2022-09-20T21:46:29.375Z,10.00
2022-09-20T21:48:59.776Z,10.10
2022-09-20T21:51:31.301Z,10.10
2022-09-20T21:54:04.345Z,10.10
2022-09-20T21:56:36.656Z,10.00
2022-09-20T21:59:06.336Z,10.00
2022-09-20T22:01:39.490Z,10.00
2022-09-20T22:04:11.896Z,10.00
2022-09-20T22:06:41.446Z,10.10
2022-09-20T22:09:11.343Z,10.10
2022-09-20T22:11:44.824Z,10.10
2022-09-20T22:14:13.358Z,10.10
2022-09-20T22:16:43.271Z,10.10
2022-09-20T22:19:12.949Z,10.10
2022-09-20T22:21:42.904Z,10.10
2022-09-20T22:24:12.109Z,10.20
2022-09-20T22:26:45.900Z,10.20
2022-09-20T22:29:13.967Z,10.20
2022-09-20T22:31:45.675Z,10.30
2022-09-20T22:34:21.654Z,10.30
2022-09-20T22:36:49.329Z,10.30
2022-09-20T22:39:17.341Z,10.40
2022-09-20T22:41:48.200Z,10.40
2022-09-20T22:44:16.054Z,10.50
2022-09-20T22:46:43.569Z,10.50
2022-09-20T22:49:10.963Z,10.50
2022-09-20T22:51:38.630Z,10.50
2022-09-20T22:54:09.812Z,10.50
2022-09-20T22:56:38.726Z,10.50
2022-09-20T22:59:11.156Z,10.50
2022-09-20T23:01:43.621Z,10.50
2022-09-20T23:04:23.531Z,10.50
2022-09-20T23:06:55.156Z,10.50
2022-09-20T23:09:25.009Z,10.50
2022-09-20T23:11:52.323Z,10.60
2022-09-20T23:14:21.444Z,10.60
2022-09-20T23:16:49.454Z,10.60
2022-09-20T23:19:18.165Z,10.60
2022-09-20T23:21:45.764Z,10.50
2022-09-20T23:24:14.601Z,10.50
2022-09-20T23:26:42.880Z,10.40
2022-09-20T23:29:15.451Z,10.40
2022-09-20T23:31:46.105Z,10.40
2022-09-20T23:34:14.725Z,10.40
2022-09-20T23:36:42.713Z,10.40
2022-09-20T23:39:11.815Z,10.40
2022-09-20T23:41:39.591Z,10.40
2022-09-20T23:44:09.929Z,10.30
2022-09-20T23:46:38.619Z,10.40
2022-09-20T23:49:06.982Z,10.30
2022-09-20T23:51:35.603Z,10.40
2022-09-20T23:54:03.845Z,10.30
2022-09-20T23:56:32.153Z,10.40
2022-09-20T23:58:59.566Z,10.30
